Time;durP1;ratioP1;P1;durP2;ratioP2;P2;SDS_P1;SDS_P2;PMS_P1;PMS_P2;Temp;Humidity;BMP_temperature;BMP_pressure;BME280_temperature;BME280_humidity;BME280_pressure;Samples;Min_cycle;Max_cycle;Signal;HPM_P1;HPM_P2
2023/07/10 00:00:40;;;;;;;2.55;2.35;;;;;;;15.51;100.00;99584.91;5137257;28;20086;-51
2023/07/10 00:03:08;;;;;;;3.25;2.95;;;;;;;15.27;100.00;99585.59;5137130;28;20047;-54
2023/07/10 00:05:34;;;;;;;3.42;2.72;;;;;;;15.09;100.00;99584.69;5137324;28;20048;-52
2023/07/10 00:08:00;;;;;;;5.70;3.00;;;;;;;15.34;100.00;99588.38;5136908;28;20142;-51
2023/07/10 00:10:28;;;;;;;3.67;3.15;;;;;;;15.31;100.00;99594.69;5137158;28;20062;-54
2023/07/10 00:12:54;;;;;;;4.72;2.90;;;;;;;15.37;100.00;99597.88;5136852;28;20047;-59
2023/07/10 00:15:21;;;;;;;3.83;3.30;;;;;;;15.35;100.00;99601.00;5137306;28;20043;-59
2023/07/10 00:17:50;;;;;;;3.83;3.20;;;;;;;15.32;100.00;99601.78;5136809;28;20051;-53
2023/07/10 00:20:19;;;;;;;3.20;2.90;;;;;;;15.21;100.00;99598.19;5137316;28;20051;-58
2023/07/10 00:22:44;;;;;;;3.67;2.78;;;;;;;15.13;100.00;99596.53;5137025;28;20137;-55
2023/07/10 00:25:11;;;;;;;3.25;2.85;;;;;;;15.07;100.00;99585.06;5136859;28;20057;-52
2023/07/10 00:27:38;;;;;;;3.47;2.80;;;;;;;15.17;100.00;99578.03;5136740;28;20051;-52
2023/07/10 00:30:13;;;;;;;4.55;3.20;;;;;;;15.16;100.00;99576.44;5136766;28;20439;-57
2023/07/10 00:32:39;;;;;;;4.72;2.78;;;;;;;15.09;100.00;99568.91;5136973;27;20055;-55
2023/07/10 00:35:06;;;;;;;3.15;2.85;;;;;;;15.07;100.00;99566.53;5136651;28;20421;-55
2023/07/10 00:37:32;;;;;;;3.58;2.90;;;;;;;15.15;100.00;99558.28;5136936;27;20047;-59
2023/07/10 00:39:59;;;;;;;10.30;3.95;;;;;;;14.98;100.00;99557.00;5136665;28;20047;-54
2023/07/10 00:42:26;;;;;;;4.28;3.10;;;;;;;15.09;100.00;99551.53;5136994;28;20089;-57
2023/07/10 00:44:56;;;;;;;4.80;3.90;;;;;;;14.99;100.00;99540.03;5136457;28;20142;-55
2023/07/10 00:47:27;;;;;;;3.20;2.90;;;;;;;15.07;100.00;99543.66;5136872;28;20043;-60
2023/07/10 00:49:58;;;;;;;3.47;3.05;;;;;;;15.07;100.00;99543.66;5136719;27;20047;-55
2023/07/10 00:52:28;;;;;;;3.05;2.80;;;;;;;15.04;100.00;99545.22;5136542;28;20044;-54
2023/07/10 00:54:58;;;;;;;5.55;3.20;;;;;;;15.10;100.00;99544.88;5136535;28;20397;-59
2023/07/10 00:57:33;;;;;;;6.88;3.55;;;;;;;15.06;100.00;99551.16;5137894;27;20324;-52
2023/07/10 01:00:00;;;;;;;3.42;3.13;;;;;;;14.94;100.00;99547.91;5140073;28;20429;-56
2023/07/10 01:02:26;;;;;;;4.13;2.83;;;;;;;14.87;100.00;99534.88;5139872;28;20328;-59
2023/07/10 01:04:58;;;;;;;5.07;2.90;;;;;;;14.98;100.00;99538.47;5140237;27;20051;-58
2023/07/10 01:07:26;;;;;;;3.50;3.20;;;;;;;14.81;100.00;99519.84;5139500;28;20058;-50
2023/07/10 01:09:57;;;;;;;3.33;3.00;;;;;;;14.87;100.00;99507.25;5140182;28;20316;-58
2023/07/10 01:12:23;;;;;;;4.55;3.33;;;;;;;14.74;100.00;99506.78;5139999;28;20197;-51
2023/07/10 01:14:49;;;;;;;6.50;3.58;;;;;;;14.83;100.00;99510.00;5139524;28;20059;-56
2023/07/10 01:17:15;;;;;;;3.58;3.08;;;;;;;14.84;100.00;99513.53;5139636;27;20130;-54
2023/07/10 01:19:43;;;;;;;3.72;3.10;;;;;;;14.80;100.00;99498.94;5139676;28;20107;-52
2023/07/10 01:22:10;;;;;;;4.00;2.88;;;;;;;14.75;100.00;99507.56;5139770;28;20047;-56
2023/07/10 01:24:36;;;;;;;3.65;2.70;;;;;;;14.63;100.00;99496.84;5139557;28;20089;-54
2023/07/10 01:27:04;;;;;;;6.03;2.75;;;;;;;14.67;100.00;99492.16;5139614;28;20047;-53
2023/07/10 01:29:36;;;;;;;3.85;3.30;;;;;;;14.65;100.00;99488.97;5139286;28;20141;-52
2023/07/10 01:32:05;;;;;;;5.38;3.30;;;;;;;14.61;100.00;99458.59;5139757;28;20047;-53
2023/07/10 01:34:37;;;;;;;11.02;3.15;;;;;;;14.67;100.00;99472.84;5139194;28;20043;-58
2023/07/10 01:37:05;;;;;;;2.90;2.70;;;;;;;14.66;100.00;99490.53;5139372;28;20306;-55
2023/07/10 01:39:36;;;;;;;5.93;3.10;;;;;;;14.56;100.00;99486.53;5139467;28;20057;-53
2023/07/10 01:42:03;;;;;;;4.53;3.20;;;;;;;14.61;100.00;99474.38;5139273;28;20047;-55
2023/07/10 01:44:31;;;;;;;3.53;3.15;;;;;;;14.70;100.00;99489.41;5139446;28;20138;-54
2023/07/10 01:46:59;;;;;;;5.05;2.72;;;;;;;14.54;100.00;99481.41;5139202;28;20083;-52
2023/07/10 01:49:28;;;;;;;3.90;2.90;;;;;;;14.62;100.00;99486.97;5139332;27;20061;-55
2023/07/10 01:51:56;;;;;;;4.53;3.08;;;;;;;14.64;100.00;99503.97;5138934;28;20169;-57
2023/07/10 01:54:22;;;;;;;3.50;2.80;;;;;;;14.61;100.00;99507.47;5139286;28;20043;-52
2023/07/10 01:56:48;;;;;;;4.35;2.70;;;;;;;14.54;100.00;99508.22;5138913;28;20057;-57
2023/07/10 01:59:14;;;;;;;4.68;3.15;;;;;;;14.53;100.00;99501.91;5139379;27;20051;-59
2023/07/10 02:01:40;;;;;;;3.53;2.80;;;;;;;14.52;100.00;99500.31;5138670;27;20491;-57
2023/07/10 02:04:06;;;;;;;3.40;3.08;;;;;;;14.46;100.00;99496.31;5139000;28;20078;-58
2023/07/10 02:06:35;;;;;;;9.20;3.38;;;;;;;14.42;100.00;99486.41;5138695;28;20057;-53
2023/07/10 02:09:02;;;;;;;5.40;3.00;;;;;;;14.42;100.00;99484.44;5138282;27;20051;-55
2023/07/10 02:11:48;;;;;;;3.97;3.28;;;;;;;14.50;100.00;99496.34;5138867;28;20382;-59
2023/07/10 02:14:14;;;;;;;3.55;2.72;;;;;;;14.52;100.00;99488.50;5138695;28;20047;-57
2023/07/10 02:16:40;;;;;;;4.63;3.40;;;;;;;14.49;100.00;99501.03;5138882;28;20480;-52
2023/07/10 02:19:08;;;;;;;3.60;2.83;;;;;;;14.56;100.00;99505.84;5138514;28;20050;-52
2023/07/10 02:21:34;;;;;;;4.57;2.95;;;;;;;14.61;100.00;99519.31;5138931;28;20047;-58
2023/07/10 02:24:00;;;;;;;4.13;2.90;;;;;;;14.58;100.00;99528.34;5138408;28;20050;-51
2023/07/10 02:26:28;;;;;;;3.47;2.92;;;;;;;14.44;100.00;99523.47;5138868;27;20047;-59
2023/07/10 02:28:55;;;;;;;6.47;2.50;;;;;;;14.42;100.00;99527.78;5138558;27;20146;-53
2023/07/10 02:31:21;;;;;;;3.38;3.08;;;;;;;14.84;100.00;99519.06;5138317;28;20058;-58
2023/07/10 02:33:47;;;;;;;3.22;2.88;;;;;;;15.32;100.00;99546.53;5138396;27;20057;-51
2023/07/10 02:36:14;;;;;;;7.57;2.90;;;;;;;15.93;100.00;99583.53;5138347;28;20137;-53
2023/07/10 02:38:40;;;;;;;4.03;2.80;;;;;;;16.12;100.00;99579.59;5138427;28;20293;-54
2023/07/10 02:41:06;;;;;;;4.68;2.78;;;;;;;16.32;100.00;99529.44;5138246;27;20080;-56
2023/07/10 02:43:32;;;;;;;7.20;2.83;;;;;;;16.14;100.00;99427.09;5138409;27;20046;-58
2023/07/10 02:45:59;;;;;;;6.68;2.75;;;;;;;16.57;100.00;99349.56;5138088;28;20417;-52
2023/07/10 02:48:25;;;;;;;5.00;2.70;;;;;;;16.96;100.00;99169.44;5138457;28;20047;-54
2023/07/10 02:50:51;;;;;;;4.57;2.40;;;;;;;17.21;100.00;99055.63;5138023;28;20142;-50
2023/07/10 02:53:17;;;;;;;10.02;2.47;;;;;;;17.44;100.00;98849.91;5138527;28;20294;-54
2023/07/10 02:55:43;;;;;;;4.50;3.58;;;;;;;17.59;100.00;98715.44;5137918;27;20107;-54
2023/07/10 02:58:09;;;;;;;3.67;3.38;;;;;;;17.67;100.00;98652.34;5138104;28;20058;-59
2023/07/10 03:00:36;;;;;;;6.22;2.67;;;;;;;17.74;100.00;98571.81;5138193;28;20082;-58
2023/07/10 03:03:03;;;;;;;2.80;2.47;;;;;;;17.75;100.00;98464.47;5137998;28;20051;-55
2023/07/10 03:05:29;;;;;;;2.85;2.58;;;;;;;17.79;100.00;98498.47;5137986;28;20138;-55
2023/07/10 03:07:55;;;;;;;3.72;2.95;;;;;;;17.85;100.00;98385.84;5137613;28;20047;-51
2023/07/10 03:10:21;;;;;;;3.30;2.42;;;;;;;17.63;100.00;98452.06;5138002;28;20138;-55
2023/07/10 03:12:47;;;;;;;3.63;2.50;;;;;;;16.61;100.00;98509.00;5137779;28;20138;-51
2023/07/10 03:15:13;;;;;;;4.32;2.65;;;;;;;17.29;100.00;98630.44;5138040;28;20111;-53
2023/07/10 03:17:40;;;;;;;8.38;2.58;;;;;;;17.65;100.00;98532.78;5137661;28;20150;-58
2023/07/10 03:20:08;;;;;;;4.60;2.85;;;;;;;17.71;100.00;98424.97;5136981;27;20099;-53
2023/07/10 03:22:34;;;;;;;4.75;2.72;;;;;;;17.71;100.00;98350.91;5137458;27;20134;-51
2023/07/10 03:25:00;;;;;;;2.85;2.47;;;;;;;17.65;100.00;98419.91;5137777;27;20051;-54
2023/07/10 03:27:27;;;;;;;4.15;2.80;;;;;;;17.49;100.00;98361.69;5137774;28;20055;-57
2023/07/10 03:29:53;;;;;;;4.50;2.70;;;;;;;17.45;100.00;98421.97;5137556;28;20386;-54
2023/07/10 03:32:19;;;;;;;5.20;2.78;;;;;;;17.22;100.00;98494.84;5137753;28;20062;-59
2023/07/10 03:34:45;;;;;;;8.35;2.75;;;;;;;17.11;100.00;98575.38;5137547;28;20055;-54
2023/07/10 03:37:12;;;;;;;5.05;2.92;;;;;;;16.90;100.00;98623.63;5137766;28;20073;-52
2023/07/10 03:39:38;;;;;;;3.22;2.72;;;;;;;17.56;100.00;98647.00;5137272;28;20500;-50
2023/07/10 03:42:04;;;;;;;3.20;2.72;;;;;;;17.82;100.00;98403.34;5137683;28;20141;-53
2023/07/10 03:44:30;;;;;;;3.50;2.50;;;;;;;17.88;100.00;98291.47;5137284;28;20074;-58
2023/07/10 03:46:56;;;;;;;5.35;2.80;;;;;;;17.92;100.00;98201.88;5137646;28;20047;-57
2023/07/10 03:49:22;;;;;;;4.40;4.00;;;;;;;18.18;100.00;98183.34;5137091;28;20187;-52
2023/07/10 03:51:48;;;;;;;4.97;3.67;;;;;;;18.51;100.00;98122.91;5137161;28;20069;-52
2023/07/10 03:54:17;;;;;;;4.00;3.35;;;;;;;17.87;100.00;98103.41;5137321;28;20460;-55
2023/07/10 03:56:43;;;;;;;3.38;2.70;;;;;;;18.47;100.00;98117.47;5137315;28;20146;-55
2023/07/10 03:59:09;;;;;;;4.38;3.60;;;;;;;18.96;100.00;98055.25;5137361;28;20051;-57
2023/07/10 04:01:35;;;;;;;3.45;3.15;;;;;;;19.34;100.00;98051.56;5137218;28;20044;-51
2023/07/10 04:04:01;;;;;;;4.30;3.15;;;;;;;19.62;100.00;98055.31;5137299;27;20057;-55
2023/07/10 04:06:27;;;;;;;4.13;2.72;;;;;;;20.01;100.00;98080.94;5137095;28;20119;-57
2023/07/10 04:08:53;;;;;;;4.85;2.88;;;;;;;20.47;100.00;98139.66;5137271;28;20051;-55
2023/07/10 04:11:22;;;;;;;4.78;2.90;;;;;;;20.73;100.00;98170.91;5137115;27;20059;-53
2023/07/10 04:13:48;;;;;;;4.82;2.80;;;;;;;20.76;100.00;98232.03;5137271;28;20043;-57
2023/07/10 04:16:17;;;;;;;4.40;2.67;;;;;;;20.44;100.00;98239.53;5136921;28;20043;-57
2023/07/10 04:18:44;;;;;;;3.78;2.20;;;;;;;20.57;100.00;98247.06;5137253;28;20412;-53
2023/07/10 04:21:17;;;;;;;3.72;2.97;;;;;;;21.22;100.00;98301.88;5136715;28;20055;-51
2023/07/10 04:23:44;;;;;;;2.97;2.30;;;;;;;21.83;100.00;98364.44;5136784;28;20091;-57
2023/07/10 04:26:15;;;;;;;3.10;2.80;;;;;;;21.92;100.00;98391.56;5136764;28;20097;-55
2023/07/10 04:28:41;;;;;;;10.00;2.88;;;;;;;22.35;100.00;98448.47;5136758;28;20055;-55
2023/07/10 04:31:07;;;;;;;2.78;2.55;;;;;;;22.48;100.00;98474.25;5138103;27;20134;-58
2023/07/10 04:33:33;;;;;;;5.97;2.65;;;;;;;22.96;100.00;98504.63;5140337;28;20062;-55
2023/07/10 04:35:59;;;;;;;3.50;3.20;;;;;;;23.19;100.00;98542.34;5140377;28;20389;-55
2023/07/10 04:38:28;;;;;;;2.40;2.25;;;;;;;23.57;100.00;98583.06;5140224;28;20083;-54
2023/07/10 04:40:55;;;;;;;4.25;2.60;;;;;;;23.06;100.00;98569.69;5140534;28;20134;-54
2023/07/10 04:43:21;;;;;;;4.13;3.05;;;;;;;23.49;100.00;98588.19;5140062;28;20057;-53
2023/07/10 04:45:49;;;;;;;3.85;3.35;;;;;;;23.70;100.00;98614.50;5140483;28;20043;-53
2023/07/10 04:48:14;;;;;;;4.05;2.38;;;;;;;23.60;100.00;98605.31;5139855;28;20051;-59
2023/07/10 04:50:46;;;;;;;3.05;2.50;;;;;;;22.99;100.00;98596.72;5140065;28;20137;-58
2023/07/10 04:53:12;;;;;;;6.68;2.42;;;;;;;22.96;100.00;98585.69;5139981;28;20051;-52
2023/07/10 04:55:38;;;;;;;2.85;2.50;;;;;;;23.93;100.00;98621.47;5139790;28;20047;-57
2023/07/10 04:58:03;;;;;;;4.28;2.70;;;;;;;24.29;100.00;98659.84;5139961;27;20146;-59
2023/07/10 05:00:30;;;;;;;4.07;2.80;;;;;;;24.56;100.00;98667.41;5139799;27;20128;-60
2023/07/10 05:02:57;;;;;;;7.32;2.80;;;;;;;24.61;100.00;98694.78;5139970;27;20050;-55
2023/07/10 05:05:23;;;;;;;3.17;2.90;;;;;;;24.63;100.00;98691.53;5139757;28;20061;-58
2023/07/10 05:07:49;;;;;;;4.10;3.13;;;;;;;24.33;100.00;98677.25;5139895;28;20236;-55
2023/07/10 05:10:15;;;;;;;3.42;3.10;;;;;;;23.97;100.00;98669.69;5139579;28;20054;-53
2023/07/10 05:12:41;;;;;;;6.65;2.50;;;;;;;24.01;100.00;98667.50;5139835;28;20075;-56
2023/07/10 05:15:08;;;;;;;5.85;2.47;;;;;;;24.20;100.00;98685.06;5139342;28;20043;-58
2023/07/10 05:17:34;;;;;;;4.28;3.20;;;;;;;24.07;100.00;98665.63;5139651;28;20047;-54
2023/07/10 05:20:00;;;;;;;3.05;2.80;;;;;;;23.73;100.00;98672.34;5139708;28;20298;-52
2023/07/10 05:22:26;;;;;;;3.40;3.10;;;;;;;22.89;100.00;98620.28;5139566;28;20077;-52
2023/07/10 05:24:52;;;;;;;3.20;3.00;;;;;;;22.43;100.00;98583.03;5139236;28;20404;-52
2023/07/10 05:27:18;;;;;;;3.42;2.70;;;;;;;21.57;100.00;98506.09;5139407;28;20058;-53
2023/07/10 05:29:44;;;;;;;4.53;2.97;;;;;;;20.67;100.00;98379.56;5139365;28;20354;-58
2023/07/10 05:32:10;;;;;;;5.95;2.90;;;;;;;20.56;100.00;98334.59;5138821;27;20047;-55
2023/07/10 05:34:36;;;;;;;3.95;2.92;;;;;;;21.09;100.00;98302.00;5139101;27;20051;-55
2023/07/10 05:37:04;;;;;;;3.13;2.85;;;;;;;22.38;100.00;98453.13;5138833;28;20222;-58
2023/07/10 05:39:30;;;;;;;7.53;3.72;;;;;;;23.11;100.00;98560.69;5139317;28;20504;-56
2023/07/10 05:41:56;;;;;;;2.72;2.50;;;;;;;23.82;100.00;98626.75;5138458;27;20043;-53
2023/07/10 05:44:22;;;;;;;4.80;3.30;;;;;;;24.39;100.00;98683.78;5138857;28;20061;-52
2023/07/10 05:46:48;;;;;;;3.58;3.28;;;;;;;24.71;100.00;98706.72;5139062;27;20047;-57
2023/07/10 05:49:14;;;;;;;3.80;3.10;;;;;;;24.17;100.00;98711.97;5138922;28;20324;-57
2023/07/10 05:51:40;;;;;;;3.22;3.00;;;;;;;23.44;100.00;98659.53;5138791;27;20404;-55
2023/07/10 05:54:06;;;;;;;6.70;2.80;;;;;;;22.42;100.00;98610.16;5138775;28;20137;-54
2023/07/10 05:56:32;;;;;;;2.60;2.40;;;;;;;21.97;100.00;98530.50;5138921;28;20138;-57
2023/07/10 05:58:58;;;;;;;3.22;2.65;;;;;;;21.57;100.00;98461.47;5138817;28;20079;-54
2023/07/10 06:01:24;;;;;;;3.33;3.03;;;;;;;21.42;100.00;98401.13;5138852;27;20393;-52
2023/07/10 06:03:50;;;;;;;5.40;2.97;;;;;;;21.56;100.00;98381.84;5138494;28;20051;-52
2023/07/10 06:06:16;;;;;;;3.28;2.97;;;;;;;21.34;100.00;98381.09;5138914;28;20045;-51
2023/07/10 06:08:42;;;;;;;5.10;2.33;;;;;;;21.78;100.00;98417.25;5138453;28;20078;-52
2023/07/10 06:11:08;;;;;;;3.00;2.72;;;;;;;21.89;100.00;98451.09;5138594;28;20047;-55
2023/07/10 06:13:35;;;;;;;8.00;3.30;;;;;;;21.58;100.00;98485.34;5138292;28;20050;-54
2023/07/10 06:16:05;;;;;;;5.90;2.72;;;;;;;21.69;100.00;98454.25;5138206;28;20053;-50
2023/07/10 06:18:31;;;;;;;3.10;2.67;;;;;;;21.73;100.00;98435.38;5138516;28;20061;-57
2023/07/10 06:20:59;;;;;;;9.02;2.92;;;;;;;22.62;100.00;98486.06;5138343;28;20043;-58
2023/07/10 06:23:27;;;;;;;4.38;2.97;;;;;;;23.63;100.00;98601.56;5138499;28;20043;-55
2023/07/10 06:25:54;;;;;;;4.65;3.40;;;;;;;24.23;100.00;98672.13;5137959;27;20047;-57
2023/07/10 06:28:21;;;;;;;5.22;2.80;;;;;;;24.16;100.00;98665.63;5138114;27;20364;-53
2023/07/10 06:30:54;;;;;;;3.58;2.33;;;;;;;24.86;100.00;98716.03;5138157;28;20336;-57
2023/07/10 06:33:20;;;;;;;8.32;3.13;;;;;;;25.20;100.00;98739.28;5138367;27;20047;-57
2023/07/10 06:35:46;;;;;;;4.15;2.85;;;;;;;24.00;100.00;98704.38;5137971;27;20413;-59
2023/07/10 06:38:12;;;;;;;4.68;2.95;;;;;;;23.48;100.00;98653.78;5138474;27;20083;-59
2023/07/10 06:40:37;;;;;;;4.60;2.80;;;;;;;22.72;100.00;98600.16;5137815;28;20151;-60
2023/07/10 06:43:03;;;;;;;3.80;3.00;;;;;;;23.25;100.00;98608.38;5137821;28;20376;-60
2023/07/10 06:45:30;;;;;;;2.95;2.70;;;;;;;24.33;100.00;98680.03;5138169;28;20164;-58
2023/07/10 06:47:56;;;;;;;3.60;2.42;;;;;;;25.00;100.00;98714.56;5137848;28;20142;-59
2023/07/10 06:50:22;;;;;;;2.42;2.20;;;;;;;23.94;100.00;98723.81;5138134;27;20051;-54
2023/07/10 06:52:48;;;;;;;8.95;4.15;;;;;;;23.65;100.00;98674.63;5137914;28;20320;-56
2023/07/10 06:55:16;;;;;;;4.40;2.95;;;;;;;23.28;100.00;98626.25;5137949;27;20047;-52
2023/07/10 06:57:42;;;;;;;3.47;3.00;;;;;;;22.48;100.00;98580.38;5137667;28;20051;-58
2023/07/10 07:00:11;;;;;;;9.00;3.08;;;;;;;22.18;100.00;98565.22;5138004;27;20107;-52
2023/07/10 07:02:38;;;;;;;5.82;2.80;;;;;;;22.58;100.00;98572.81;5137518;28;20047;-55
2023/07/10 07:05:06;;;;;;;4.93;4.15;;;;;;;24.12;100.00;98675.41;5138067;28;20057;-49
2023/07/10 07:07:32;;;;;;;5.78;2.83;;;;;;;25.05;100.00;98729.97;5137429;28;20140;-59
2023/07/10 07:09:59;;;;;;;8.32;3.20;;;;;;;26.07;100.00;98761.84;5137865;28;20059;-52
2023/07/10 07:12:25;;;;;;;10.40;3.45;;;;;;;26.21;100.00;98780.75;5137771;27;20133;-57
2023/07/10 07:14:51;;;;;;;5.63;3.00;;;;;;;26.17;100.00;98782.97;5137604;28;20047;-51
2023/07/10 07:17:17;;;;;;;3.65;3.05;;;;;;;26.33;100.00;98770.50;5137707;28;20454;-54
2023/07/10 07:19:46;;;;;;;6.20;2.83;;;;;;;26.88;100.00;98786.84;5137418;28;20074;-57
2023/07/10 07:22:12;;;;;;;6.35;2.80;;;;;;;26.60;100.00;98782.78;5137782;28;20046;-54
2023/07/10 07:24:37;;;;;;;3.80;3.08;;;;;;;26.91;100.00;98791.50;5137438;27;20300;-56
2023/07/10 07:27:04;;;;;;;8.70;2.85;;;;;;;26.79;100.00;98786.16;5137412;27;20309;-60
2023/07/10 07:29:30;;;;;;;2.83;2.53;;;;;;;26.43;100.00;98777.59;5137235;28;20058;-54
2023/07/10 07:31:56;;;;;;;5.28;2.80;;;;;;;25.42;100.00;98764.25;5137718;28;20051;-58
2023/07/10 07:34:22;;;;;;;3.15;2.90;;;;;;;26.03;100.00;98750.78;5137132;27;20057;-59
2023/07/10 07:36:50;;;;;;;4.07;2.30;;;;;;;26.65;100.00;98771.63;5137663;28;20134;-58
2023/07/10 07:39:16;;;;;;;3.10;2.65;;;;;;;26.64;100.00;98789.75;5136893;28;20061;-59
2023/07/10 07:41:42;;;;;;;3.30;2.47;;;;;;;26.69;100.00;98794.72;5137141;28;20051;-59
2023/07/10 07:44:08;;;;;;;4.57;2.50;;;;;;;27.56;100.00;98802.78;5137222;28;20055;-57
2023/07/10 07:46:34;;;;;;;6.95;2.60;;;;;;;28.23;96.10;98805.72;5136876;28;20054;-52
2023/07/10 07:49:00;;;;;;;2.75;2.13;;;;;;;28.37;85.71;98813.31;5137067;28;20055;-51
2023/07/10 07:51:26;;;;;;;3.55;2.35;;;;;;;28.48;84.47;98821.16;5136789;28;20047;-55
2023/07/10 07:54:03;;;;;;;5.07;2.60;;;;;;;27.91;85.30;98819.66;5137200;28;20078;-58
2023/07/10 07:56:29;;;;;;;3.22;2.13;;;;;;;28.73;85.61;98810.38;5136922;28;20051;-55
2023/07/10 07:58:55;;;;;;;3.05;2.22;;;;;;;29.28;83.07;98812.94;5137427;28;20061;-54
2023/07/10 08:01:21;;;;;;;2.38;2.17;;;;;;;29.11;81.33;98814.84;5136841;28;20426;-51
2023/07/10 08:03:47;;;;;;;1.98;1.85;;;;;;;28.74;86.44;98806.28;5137327;28;20476;-51
2023/07/10 08:06:12;;;;;;;3.22;2.15;;;;;;;28.00;88.24;98807.50;5138120;27;20043;-51
2023/07/10 08:08:38;;;;;;;2.50;2.28;;;;;;;27.10;93.62;98803.31;5140754;28;20089;-56
2023/07/10 08:11:06;;;;;;;4.07;2.00;;;;;;;27.65;90.26;98797.00;5140664;28;20369;-55
2023/07/10 08:13:32;;;;;;;4.28;1.90;;;;;;;26.58;99.04;98796.53;5140581;28;20141;-53
2023/07/10 08:15:58;;;;;;;3.80;1.90;;;;;;;25.37;100.00;98781.75;5140470;27;20054;-53
2023/07/10 08:18:24;;;;;;;6.30;1.88;;;;;;;26.68;92.71;98807.19;5140275;27;20051;-58
2023/07/10 08:20:50;;;;;;;5.45;2.13;;;;;;;25.99;100.00;98769.88;5140683;28;20080;-59
2023/07/10 08:23:17;;;;;;;4.80;2.78;;;;;;;25.60;100.00;98746.53;5140350;28;20074;-52
2023/07/10 08:25:43;;;;;;;3.83;2.33;;;;;;;25.26;100.00;98745.03;5140458;28;20052;-58
2023/07/10 08:28:09;;;;;;;2.95;2.10;;;;;;;25.45;100.00;98748.50;5140196;28;20191;-54
2023/07/10 08:30:35;;;;;;;3.33;1.95;;;;;;;26.02;100.00;98770.91;5140481;28;20138;-59
2023/07/10 08:33:01;;;;;;;3.40;2.30;;;;;;;27.05;96.07;98787.13;5140108;28;20150;-57
2023/07/10 08:35:27;;;;;;;4.15;1.90;;;;;;;27.51;89.24;98786.56;5140580;28;20134;-55
2023/07/10 08:37:53;;;;;;;4.18;2.08;;;;;;;27.75;87.52;98794.06;5139909;27;20074;-53
2023/07/10 08:40:26;;;;;;;3.88;2.00;;;;;;;28.30;84.62;98804.53;5140303;28;20141;-54
2023/07/10 08:42:52;;;;;;;3.05;2.00;;;;;;;27.73;87.52;98796.63;5140049;28;20396;-52
2023/07/10 08:45:31;;;;;;;1.85;1.70;;;;;;;27.56;84.83;98810.47;5140070;28;20051;-55
2023/07/10 08:48:06;;;;;;;1.88;1.77;;;;;;;26.84;87.59;98793.94;5140320;28;20057;-56
2023/07/10 08:50:32;;;;;;;2.72;1.88;;;;;;;26.40;93.63;98783.41;5139941;28;20047;-57
2023/07/10 08:53:04;;;;;;;2.85;1.98;;;;;;;26.32;94.57;98783.00;5140210;28;20134;-56
2023/07/10 08:55:36;;;;;;;1.92;1.83;;;;;;;25.89;99.99;98773.19;5140030;28;20194;-53
2023/07/10 08:58:03;;;;;;;4.93;2.00;;;;;;;25.21;100.00;98760.47;5140163;28;20076;-51
2023/07/10 09:00:38;;;;;;;6.00;2.30;;;;;;;24.69;100.00;98767.31;5139727;28;20138;-50
2023/07/10 09:03:13;;;;;;;3.53;1.65;;;;;;;24.49;100.00;98756.59;5139834;28;20242;-54
2023/07/10 09:05:44;;;;;;;13.80;2.35;;;;;;;23.10;100.00;98684.97;5139917;27;20138;-58
2023/07/10 09:08:12;;;;;;;5.82;2.28;;;;;;;22.70;100.00;98551.59;5139556;27;20228;-57
2023/07/10 09:10:41;;;;;;;14.27;2.20;;;;;;;21.99;100.00;98355.03;5139860;27;20133;-54
2023/07/10 09:13:13;;;;;;;4.03;1.73;;;;;;;21.87;100.00;98129.91;5139555;28;20089;-56
2023/07/10 09:15:45;;;;;;;7.78;2.08;;;;;;;21.34;100.00;98096.72;5139820;27;20290;-57
2023/07/10 09:18:20;;;;;;;3.25;1.42;;;;;;;22.77;100.00;98029.56;5137984;27;20142;-55
2023/07/10 09:20:49;;;;;;;6.38;1.50;;;;;;;23.47;100.00;98191.47;5139608;28;20138;-53
2023/07/10 09:23:21;;;;;;;1.98;1.75;;;;;;;23.00;100.00;98318.75;5139393;28;20057;-56
2023/07/10 09:25:54;;;;;;;2.78;2.00;;;;;;;22.87;100.00;98267.81;5139249;27;20046;-51
2023/07/10 09:28:20;;;;;;;9.25;1.70;;;;;;;22.93;100.00;98259.63;5139498;28;20259;-56
2023/07/10 09:30:54;;;;;;;2.08;1.65;;;;;;;24.19;100.00;98305.41;5139241;28;20043;-56
2023/07/10 09:33:20;;;;;;;3.20;1.60;;;;;;;24.43;100.00;98470.72;5139523;28;20047;-54
2023/07/10 09:35:48;;;;;;;2.00;1.67;;;;;;;24.47;100.00;98586.19;5139016;28;20043;-57
2023/07/10 09:38:18;;;;;;;1.58;1.42;;;;;;;24.45;100.00;98587.91;5139590;28;20138;-56
2023/07/10 09:40:45;;;;;;;1.50;1.40;;;;;;;25.73;100.00;98591.91;5138893;28;20172;-51
2023/07/10 09:43:14;;;;;;;1.98;1.48;;;;;;;25.77;100.00;98711.16;5139048;27;20194;-53
2023/07/10 09:45:43;;;;;;;2.50;1.40;;;;;;;25.55;100.00;98728.31;5139163;28;20047;-59
2023/07/10 09:48:19;;;;;;;1.67;1.42;;;;;;;24.60;100.00;98715.66;5138879;27;20047;-53
2023/07/10 09:50:49;;;;;;;3.25;1.30;;;;;;;23.41;100.00;98671.66;5138956;27;20437;-54
2023/07/10 09:53:29;;;;;;;2.13;1.60;;;;;;;22.64;100.00;98556.22;5138744;28;20043;-57
2023/07/10 09:55:55;;;;;;;1.33;1.23;;;;;;;22.00;100.00;98401.22;5139319;28;20191;-53
2023/07/10 09:58:21;;;;;;;3.28;1.20;;;;;;;22.30;100.00;98248.84;5138760;28;20366;-54
2023/07/10 10:00:48;;;;;;;1.10;1.10;;;;;;;21.91;100.00;98157.66;5139271;27;20047;-52
2023/07/10 10:03:23;;;;;;;1.38;1.25;;;;;;;21.38;100.00;98167.06;5138468;28;20106;-55
2023/07/10 10:05:53;;;;;;;4.57;1.40;;;;;;;22.11;100.00;98155.16;5138674;28;20057;-53
2023/07/10 10:08:21;;;;;;;3.00;2.00;;;;;;;22.82;100.00;98139.13;5138750;27;20051;-56
2023/07/10 10:11:00;;;;;;;2.45;1.40;;;;;;;23.28;100.00;98408.13;5138444;28;20057;-51
2023/07/10 10:13:29;;;;;;;2.22;1.10;;;;;;;23.90;100.00;98463.63;5138760;27;20137;-51
2023/07/10 10:16:03;;;;;;;3.00;1.10;;;;;;;23.61;100.00;98615.25;5138399;28;20485;-54
2023/07/10 10:18:38;;;;;;;2.92;1.00;;;;;;;23.21;100.00;98626.56;5138859;27;20074;-56
2023/07/10 10:21:05;;;;;;;3.80;1.20;;;;;;;23.45;100.00;98677.88;5138294;28;20047;-58
2023/07/10 10:23:33;;;;;;;3.05;1.52;;;;;;;23.75;100.00;98706.22;5138671;27;20051;-57
2023/07/10 10:26:25;;;;;;;1.50;1.20;;;;;;;23.78;100.00;98752.09;5138500;28;20389;-54
2023/07/10 10:29:06;;;;;;;1.00;0.95;;;;;;;24.27;100.00;98740.75;5137613;27;20047;-57
2023/07/10 10:31:38;;;;;;;1.30;1.20;;;;;;;24.45;100.00;98756.00;5138679;28;20047;-51
2023/07/10 10:34:12;;;;;;;2.38;1.00;;;;;;;24.81;100.00;98769.16;5137984;28;20142;-55
2023/07/10 10:36:46;;;;;;;5.72;1.00;;;;;;;25.20;100.00;98772.94;5138442;28;20102;-58
2023/07/10 10:39:20;;;;;;;1.10;1.10;;;;;;;25.32;100.00;98762.75;5137814;28;20055;-57
2023/07/10 10:41:54;;;;;;;2.30;1.05;;;;;;;25.64;100.00;98772.41;5137771;28;21400;-59
2023/07/10 10:44:42;;;;;;;1.77;1.10;;;;;;;25.65;95.15;98787.97;5138130;28;20051;-51
2023/07/10 10:47:23;;;;;;;0.90;0.90;;;;;;;25.81;92.90;98792.44;5138092;27;20138;-53
2023/07/10 10:50:18;;;;;;;1.17;1.08;;;;;;;26.10;93.00;98788.19;5138338;27;20141;-53
2023/07/10 10:52:58;;;;;;;1.02;1.00;;;;;;;25.30;99.48;98782.88;5137816;27;20083;-58
2023/07/10 10:55:36;;;;;;;1.67;1.00;;;;;;;24.21;100.00;98775.44;5138096;27;20065;-54
2023/07/10 10:58:19;;;;;;;5.13;1.27;;;;;;;24.03;100.00;98765.81;5138201;27;20046;-58
2023/07/10 11:01:03;;;;;;;1.88;1.20;;;;;;;23.73;100.00;98761.13;5137979;28;20305;-57
2023/07/10 11:03:35;;;;;;;1.20;1.15;;;;;;;23.00;100.00;98732.44;5138137;28;20141;-58
2023/07/10 11:06:32;;;;;;;1.20;1.10;;;;;;;22.58;100.00;98704.09;5137485;28;20554;-62
2023/07/10 11:09:01;;;;;;;1.23;1.00;;;;;;;22.53;100.00;98680.34;5137404;28;20141;-59
2023/07/10 11:11:30;;;;;;;1.00;1.00;;;;;;;22.88;100.00;98674.59;5137862;28;20133;-52
2023/07/10 11:13:59;;;;;;;3.03;1.38;;;;;;;22.55;100.00;98649.94;5137425;28;20401;-58
2023/07/10 11:16:29;;;;;;;1.23;1.13;;;;;;;22.63;100.00;98569.44;5137958;27;20057;-62
2023/07/10 11:18:56;;;;;;;1.20;1.10;;;;;;;22.12;100.00;98511.19;5137495;28;20055;-59
2023/07/10 11:21:22;;;;;;;1.73;1.00;;;;;;;22.05;100.00;98506.66;5137816;28;20379;-59
2023/07/10 11:23:49;;;;;;;3.33;1.42;;;;;;;22.19;100.00;98451.53;5137363;28;20129;-61
2023/07/10 11:26:17;;;;;;;5.78;1.38;;;;;;;22.30;100.00;98440.72;5137629;27;20062;-51
2023/07/10 11:28:52;;;;;;;2.78;1.45;;;;;;;21.90;100.00;98435.13;5137180;28;20051;-63
2023/07/10 11:31:22;;;;;;;1.70;1.60;;;;;;;22.21;100.00;98530.03;5137405;28;20138;-56